Time;durP1;ratioP1;P1;durP2;ratioP2;P2;SDS_P1;SDS_P2;PMS_P1;PMS_P2;Temp;Humidity;BMP_temperature;BMP_pressure;BME280_temperature;BME280_humidity;BME280_pressure;Samples;Min_cycle;Max_cycle;Signal;HPM_P1;HPM_P2
2021/01/15 00:01:35;;;;;;;1.50;0.90;;;;;;;22.87;36.04;94397.78;4973238;28;20054;-72
2021/01/15 00:04:00;;;;;;;1.58;1.00;;;;;;;22.77;36.17;94400.16;4973438;28;20166;-72
2021/01/15 00:06:26;;;;;;;1.67;1.10;;;;;;;22.67;36.28;94406.50;4973625;28;20031;-74
2021/01/15 00:08:51;;;;;;;2.15;1.02;;;;;;;22.66;36.22;94405.03;4973453;28;20030;-73
2021/01/15 00:11:21;;;;;;;1.55;0.90;;;;;;;22.63;36.16;94406.06;4973478;28;20566;-72
2021/01/15 00:13:46;;;;;;;1.90;1.20;;;;;;;22.65;36.05;94417.19;4973447;28;20034;-74
2021/01/15 00:16:19;;;;;;;1.58;0.90;;;;;;;22.68;36.28;94424.31;4973316;28;20479;-73
2021/01/15 00:18:45;;;;;;;1.85;0.98;;;;;;;22.66;36.33;94419.41;4973547;28;20027;-73
2021/01/15 00:21:24;;;;;;;1.50;1.00;;;;;;;22.70;36.14;94421.81;4972528;28;20046;-73
2021/01/15 00:23:56;;;;;;;1.58;0.98;;;;;;;22.69;36.38;94415.63;4973380;28;20050;-74
2021/01/15 00:26:23;;;;;;;1.42;1.00;;;;;;;22.70;36.27;94411.66;4973184;28;20475;-73
2021/01/15 00:28:49;;;;;;;1.45;0.90;;;;;;;22.70;36.14;94408.19;4973165;28;20480;-73
2021/01/15 00:31:14;;;;;;;1.52;1.00;;;;;;;22.61;36.23;94392.25;4971411;28;20026;-73
2021/01/15 00:33:40;;;;;;;1.52;1.10;;;;;;;22.70;36.39;94410.91;4973077;28;20030;-73
2021/01/15 00:36:06;;;;;;;2.13;1.20;;;;;;;22.71;36.24;94406.97;4973346;28;20097;-74
2021/01/15 00:38:31;;;;;;;1.45;1.20;;;;;;;22.70;36.17;94400.03;4973036;28;20566;-74
2021/01/15 00:41:03;;;;;;;1.40;0.98;;;;;;;22.70;35.85;94410.91;4971445;28;20023;-73
2021/01/15 00:43:29;;;;;;;1.42;1.13;;;;;;;22.68;35.93;94418.88;4973097;28;20035;-74
2021/01/15 00:45:54;;;;;;;1.52;1.00;;;;;;;22.66;35.91;94415.94;4971484;28;20031;-74
2021/01/15 00:48:19;;;;;;;1.55;0.90;;;;;;;22.63;36.02;94416.97;4972999;28;20038;-73
2021/01/15 00:50:45;;;;;;;1.30;0.90;;;;;;;22.64;36.13;94407.56;4972646;28;20034;-74
2021/01/15 00:53:10;;;;;;;1.20;0.88;;;;;;;22.62;36.25;94415.50;4972350;28;20034;-73
2021/01/15 00:55:36;;;;;;;1.40;1.00;;;;;;;22.63;36.20;94419.69;4972756;28;20038;-73
2021/01/15 00:58:02;;;;;;;2.08;1.42;;;;;;;22.62;36.28;94423.69;4972540;28;20034;-73
2021/01/15 01:00:28;;;;;;;1.50;0.90;;;;;;;22.64;36.16;94429.31;4971894;28;20506;-73
2021/01/15 01:02:54;;;;;;;1.85;1.00;;;;;;;22.61;36.34;94424.91;4972314;28;20035;-73
2021/01/15 01:05:21;;;;;;;1.20;0.80;;;;;;;22.60;36.24;94429.63;4972083;28;20030;-73
2021/01/15 01:07:49;;;;;;;1.80;1.20;;;;;;;22.63;36.36;94438.72;4972466;28;20046;-73
2021/01/15 01:10:15;;;;;;;1.27;0.85;;;;;;;22.61;36.03;94435.81;4971029;28;20046;-73
2021/01/15 01:12:41;;;;;;;1.70;0.90;;;;;;;22.59;36.25;94432.88;4972420;28;20042;-73
2021/01/15 01:15:11;;;;;;;1.77;1.00;;;;;;;22.58;36.24;94442.28;4972370;28;20114;-73
2021/01/15 01:17:36;;;;;;;1.33;0.93;;;;;;;22.57;36.46;94457.13;4970695;28;20070;-73
2021/01/15 01:20:03;;;;;;;1.27;0.70;;;;;;;22.58;36.52;94464.06;4971862;28;20071;-73
2021/01/15 01:22:28;;;;;;;0.90;0.80;;;;;;;22.57;36.24;94452.44;4972312;28;20057;-73
2021/01/15 01:24:54;;;;;;;1.33;0.90;;;;;;;22.60;36.41;94462.28;4972077;28;20424;-73
2021/01/15 01:27:19;;;;;;;1.38;0.80;;;;;;;22.58;36.28;94442.28;4972100;28;20499;-73
2021/01/15 01:29:45;;;;;;;1.00;0.70;;;;;;;22.52;36.40;94444.34;4972067;28;20503;-73
2021/01/15 01:32:10;;;;;;;1.08;0.70;;;;;;;22.56;35.98;94447.50;4971330;28;20026;-72
2021/01/15 01:34:36;;;;;;;1.00;0.70;;;;;;;22.56;36.31;94444.78;4972232;28;20023;-73
2021/01/15 01:37:01;;;;;;;1.67;1.00;;;;;;;22.56;36.13;94450.22;4971782;28;20117;-73
2021/01/15 01:39:27;;;;;;;1.33;0.95;;;;;;;22.52;36.09;94449.78;4971919;28;20031;-73
2021/01/15 01:41:54;;;;;;;1.48;1.10;;;;;;;22.52;36.18;94455.22;4971653;28;20019;-73
2021/01/15 01:44:20;;;;;;;1.23;0.80;;;;;;;22.51;36.37;94457.22;4971545;28;20042;-73
2021/01/15 01:46:46;;;;;;;1.00;0.60;;;;;;;22.53;36.17;94456.72;4971343;28;20038;-73
2021/01/15 01:49:12;;;;;;;1.80;1.05;;;;;;;22.51;36.32;94453.75;4954257;28;20049;-73
2021/01/15 01:51:37;;;;;;;1.15;0.77;;;;;;;22.42;36.33;94456.88;4970413;28;20085;-73
2021/01/15 01:54:03;;;;;;;1.33;0.80;;;;;;;22.54;36.11;94485.38;4970519;28;20018;-73
2021/01/15 01:56:28;;;;;;;1.73;1.10;;;;;;;22.53;36.09;94473.03;4970427;28;20085;-73
2021/01/15 01:58:54;;;;;;;1.35;0.80;;;;;;;22.52;36.04;94468.84;4969873;28;20518;-73
2021/01/15 02:01:20;;;;;;;1.60;0.77;;;;;;;22.50;36.07;94457.75;4970323;28;20031;-73
2021/01/15 02:03:46;;;;;;;1.50;1.02;;;;;;;22.53;36.11;94470.31;4971552;28;20023;-73
2021/01/15 02:06:14;;;;;;;1.15;0.80;;;;;;;22.50;36.26;94468.63;4971229;28;20030;-72
2021/01/15 02:08:40;;;;;;;1.60;0.90;;;;;;;22.52;36.27;94471.56;4970189;28;20450;-72
2021/01/15 02:11:07;;;;;;;1.75;0.80;;;;;;;22.52;36.35;94460.66;4970476;28;20023;-73
2021/01/15 02:13:45;;;;;;;1.30;0.80;;;;;;;22.52;36.36;94471.56;4970715;28;20565;-72
2021/01/15 02:16:19;;;;;;;1.15;0.82;;;;;;;22.27;36.22;94440.28;4955284;28;20038;-73
2021/01/15 02:18:46;;;;;;;1.35;0.93;;;;;;;22.48;36.08;94476.56;4954124;28;20034;-73
2021/01/15 02:21:49;;;;;;;1.23;0.80;;;;;;;22.46;36.35;94473.63;4969265;28;20082;-73
2021/01/15 02:24:44;;;;;;;1.58;1.05;;;;;;;22.47;36.04;94475.09;4911393;29;20028;-72
2021/01/15 02:27:47;;;;;;;1.50;0.90;;;;;;;22.47;36.32;94472.38;4888269;29;20043;-72
2021/01/15 02:30:17;;;;;;;1.63;0.70;;;;;;;22.47;36.35;94481.25;4965921;28;20066;-73
2021/01/15 02:32:56;;;;;;;0.95;0.60;;;;;;;22.49;36.12;94480.75;4973526;28;20510;-72
2021/01/15 02:35:25;;;;;;;2.38;0.90;;;;;;;22.24;36.19;94457.63;4955750;28;20033;-73
2021/01/15 02:38:12;;;;;;;1.33;0.80;;;;;;;22.47;36.05;94475.09;4970314;28;20033;-74
2021/01/15 02:41:04;;;;;;;1.48;0.90;;;;;;;22.45;36.06;94480.31;4970886;28;20038;-73
2021/01/15 02:43:33;;;;;;;1.58;0.88;;;;;;;22.42;36.11;94467.75;4971454;28;20062;-73
2021/01/15 02:45:59;;;;;;;1.27;0.77;;;;;;;22.42;36.08;94489.53;4969954;28;20094;-73
2021/01/15 02:48:26;;;;;;;1.02;0.63;;;;;;;22.31;36.15;94462.44;4969566;28;20042;-73
2021/01/15 02:50:51;;;;;;;1.40;0.90;;;;;;;22.44;36.07;94476.13;4968805;28;20492;-74
2021/01/15 02:53:17;;;;;;;1.50;0.80;;;;;;;22.47;36.05;94480.53;4953076;28;20034;-73
2021/01/15 02:55:44;;;;;;;1.33;0.80;;;;;;;22.43;35.92;94474.66;4970182;28;20067;-73
2021/01/15 02:58:13;;;;;;;1.20;0.85;;;;;;;22.45;36.26;94483.03;4970327;28;20026;-73
2021/01/15 03:00:38;;;;;;;1.58;0.90;;;;;;;22.46;35.78;94484.50;4970595;28;20014;-73
2021/01/15 03:03:09;;;;;;;1.00;0.60;;;;;;;22.44;35.93;94492.47;4970383;28;20085;-73
2021/01/15 03:05:48;;;;;;;1.92;0.90;;;;;;;22.41;36.16;94488.78;4970468;28;20110;-73
2021/01/15 03:08:14;;;;;;;1.45;1.00;;;;;;;22.42;36.14;94501.13;4968782;28;20423;-73
2021/01/15 03:10:39;;;;;;;1.08;0.73;;;;;;;22.42;36.02;94505.84;4969192;28;20034;-74
2021/01/15 03:13:05;;;;;;;1.42;0.90;;;;;;;22.41;35.91;94504.38;4952972;28;20026;-73
2021/01/15 03:15:33;;;;;;;1.23;0.80;;;;;;;22.30;36.07;94499.06;4970168;28;20510;-73
2021/01/15 03:17:58;;;;;;;1.25;0.90;;;;;;;22.42;35.97;94514.00;4969138;28;20030;-73
2021/01/15 03:20:24;;;;;;;1.17;0.60;;;;;;;22.42;36.22;94522.91;4952666;28;20054;-73
2021/01/15 03:22:50;;;;;;;1.08;0.70;;;;;;;22.41;36.07;94517.97;4968527;28;20142;-73
2021/01/15 03:25:15;;;;;;;1.13;0.85;;;;;;;22.41;35.97;94510.53;4970288;28;20030;-73
2021/01/15 03:27:49;;;;;;;0.90;0.60;;;;;;;22.42;35.94;94511.28;4970196;28;20041;-74
2021/01/15 03:30:26;;;;;;;1.17;0.80;;;;;;;22.40;36.27;94508.31;4969907;28;20114;-73
2021/01/15 03:32:53;;;;;;;1.92;0.90;;;;;;;22.39;35.91;94506.88;4984803;28;20030;-73
2021/01/15 03:35:24;;;;;;;1.00;0.60;;;;;;;22.37;36.16;94508.63;4969795;28;20471;-73
2021/01/15 03:37:56;;;;;;;1.08;0.80;;;;;;;22.37;35.89;94517.50;4970200;28;20177;-73
2021/01/15 03:40:22;;;;;;;1.38;0.82;;;;;;;22.37;35.80;94503.91;4970037;28;20026;-74
2021/01/15 03:42:47;;;;;;;1.27;0.80;;;;;;;22.39;35.82;94512.31;4968761;28;20034;-73
2021/01/15 03:45:14;;;;;;;1.10;0.70;;;;;;;22.39;36.20;94517.75;4969982;28;20412;-73
2021/01/15 03:47:39;;;;;;;1.13;0.88;;;;;;;22.39;35.93;94517.75;4969782;28;20045;-74
2021/01/15 03:50:05;;;;;;;1.88;0.80;;;;;;;22.39;36.18;94511.56;4969616;28;20019;-73
2021/01/15 03:52:31;;;;;;;0.88;0.68;;;;;;;22.39;35.75;94517.00;4969690;28;20034;-73
2021/01/15 03:54:57;;;;;;;1.33;0.80;;;;;;;22.28;36.00;94500.84;4970027;28;20084;-72
2021/01/15 03:57:22;;;;;;;1.10;0.73;;;;;;;22.35;36.09;94514.59;4969872;28;20081;-73
2021/01/15 03:59:47;;;;;;;0.85;0.70;;;;;;;22.36;35.93;94515.31;4969869;28;20039;-73
2021/01/15 04:02:13;;;;;;;1.23;0.80;;;;;;;22.38;35.90;94510.84;4969698;28;20030;-72
2021/01/15 04:04:39;;;;;;;0.95;0.77;;;;;;;22.38;36.24;94505.41;4969860;28;20030;-73
2021/01/15 04:07:05;;;;;;;1.00;0.80;;;;;;;22.38;36.02;94516.28;4969544;28;20434;-72
2021/01/15 04:09:30;;;;;;;1.13;0.90;;;;;;;22.36;36.13;94518.78;4969660;28;20023;-72
2021/01/15 04:11:55;;;;;;;1.25;1.08;;;;;;;22.36;35.95;94528.91;4969721;28;20042;-72
2021/01/15 04:14:21;;;;;;;1.20;0.90;;;;;;;22.27;36.00;94532.75;4969652;28;20031;-72
2021/01/15 04:16:53;;;;;;;1.00;0.70;;;;;;;22.17;36.22;94528.88;4969539;28;20484;-73
2021/01/15 04:19:18;;;;;;;1.50;1.17;;;;;;;22.13;36.31;94544.72;4969292;28;20023;-73
2021/01/15 04:21:44;;;;;;;1.50;0.80;;;;;;;22.06;36.42;94534.44;4969202;28;20555;-73
2021/01/15 04:24:09;;;;;;;1.20;0.90;;;;;;;22.10;36.28;94556.63;4969708;28;20147;-72
2021/01/15 04:26:35;;;;;;;1.40;0.80;;;;;;;22.10;36.34;94551.19;4969874;28;20022;-72
2021/01/15 04:29:00;;;;;;;1.10;0.73;;;;;;;22.14;36.36;94540.78;4969601;28;20062;-72
2021/01/15 04:31:26;;;;;;;1.40;0.80;;;;;;;22.20;35.98;94544.16;4969193;28;20027;-74
2021/01/15 04:33:51;;;;;;;1.38;0.95;;;;;;;22.25;36.23;94537.22;4969521;28;20467;-71
2021/01/15 04:36:17;;;;;;;1.08;0.73;;;;;;;22.25;36.18;94535.22;4972319;28;20035;-74
2021/01/15 04:38:42;;;;;;;1.80;0.88;;;;;;;22.20;35.97;94546.88;4972968;28;20046;-71
2021/01/15 04:41:08;;;;;;;1.35;0.77;;;;;;;22.27;36.17;94549.06;4971363;28;20486;-72
2021/01/15 04:43:35;;;;;;;1.20;0.80;;;;;;;22.28;36.26;94549.78;4972765;28;20046;-72
2021/01/15 04:46:04;;;;;;;1.30;0.73;;;;;;;22.28;36.05;94542.34;4972709;28;20065;-72
2021/01/15 04:48:32;;;;;;;1.27;0.90;;;;;;;22.28;35.87;94550.50;4972879;28;20033;-74
2021/01/15 04:50:58;;;;;;;1.05;0.70;;;;;;;22.28;35.95;94555.97;4971703;28;20393;-72
2021/01/15 04:53:24;;;;;;;1.27;0.88;;;;;;;22.27;36.02;94549.06;4972607;28;20039;-74
2021/01/15 04:55:50;;;;;;;1.55;1.00;;;;;;;22.27;35.94;94559.94;4972760;28;20310;-73
2021/01/15 04:58:16;;;;;;;1.08;0.70;;;;;;;22.15;36.13;94544.97;4971324;28;20467;-73
2021/01/15 05:00:41;;;;;;;1.33;0.80;;;;;;;22.25;35.88;94556.97;4971234;28;20022;-73
2021/01/15 05:03:08;;;;;;;1.17;0.80;;;;;;;22.24;36.00;94558.25;4971031;28;20480;-73
2021/01/15 05:05:43;;;;;;;1.40;0.90;;;;;;;22.27;36.10;94565.38;4972452;28;20074;-73
2021/01/15 05:08:09;;;;;;;1.38;0.93;;;;;;;22.26;36.07;94558.47;4971340;28;20042;-73
2021/01/15 05:10:40;;;;;;;1.20;0.80;;;;;;;22.28;36.06;94566.84;4972136;28;20138;-73
2021/01/15 05:13:07;;;;;;;1.02;0.77;;;;;;;22.24;35.95;94560.97;4972321;28;20031;-72
2021/01/15 05:15:32;;;;;;;1.13;0.80;;;;;;;22.27;36.01;94570.81;4972211;28;20054;-72
2021/01/15 05:17:58;;;;;;;1.10;0.85;;;;;;;22.18;35.84;94557.53;4972303;28;20512;-72
2021/01/15 05:20:24;;;;;;;1.50;0.88;;;;;;;22.26;35.87;94580.22;4970751;28;20504;-73
2021/01/15 05:22:49;;;;;;;1.00;0.80;;;;;;;22.13;35.98;94561.03;4954870;28;20240;-74
2021/01/15 05:25:15;;;;;;;1.20;0.80;;;;;;;22.25;36.17;94581.47;4970759;28;20042;-74
2021/01/15 05:27:43;;;;;;;1.35;0.77;;;;;;;22.26;36.04;94580.22;4971881;28;20031;-71
2021/01/15 05:30:11;;;;;;;1.33;0.85;;;;;;;22.25;36.22;94578.75;4971730;28;20101;-73
2021/01/15 05:32:37;;;;;;;0.98;0.70;;;;;;;22.26;35.97;94576.78;4971754;28;20515;-72
2021/01/15 05:35:03;;;;;;;1.23;0.80;;;;;;;22.26;36.02;94584.94;4970523;28;20104;-73
2021/01/15 05:37:29;;;;;;;1.88;1.10;;;;;;;22.28;35.95;94599.47;4972029;28;20515;-73
2021/01/15 05:39:54;;;;;;;1.02;0.65;;;;;;;22.29;35.93;94600.22;4971746;28;20027;-73
2021/01/15 05:42:20;;;;;;;1.42;1.00;;;;;;;22.29;35.90;94600.97;4952490;28;20035;-73
2021/01/15 05:44:45;;;;;;;1.23;0.77;;;;;;;22.27;35.94;94602.72;4951296;29;20031;-73
2021/01/15 05:47:11;;;;;;;0.90;0.70;;;;;;;22.26;36.02;94601.97;4952131;28;20031;-73
2021/01/15 05:49:36;;;;;;;1.38;0.88;;;;;;;22.26;35.91;94607.41;4951973;28;20420;-73
2021/01/15 05:52:08;;;;;;;1.20;0.80;;;;;;;22.27;36.06;94603.47;4952288;28;20028;-73
2021/01/15 05:54:34;;;;;;;1.40;0.88;;;;;;;22.23;35.92;94607.72;4967440;28;20065;-73
2021/01/15 05:56:59;;;;;;;1.23;0.95;;;;;;;22.28;35.76;94615.78;4950385;29;20054;-76
2021/01/15 05:59:25;;;;;;;1.45;1.00;;;;;;;22.33;35.72;94623.19;4955269;28;20027;-75
2021/01/15 06:01:57;;;;;;;1.05;0.85;;;;;;;22.37;35.47;94628.31;4969319;28;20038;-73
2021/01/15 06:04:32;;;;;;;1.67;1.05;;;;;;;22.38;35.70;94625.09;4967118;28;20027;-73
2021/01/15 06:06:58;;;;;;;2.60;0.88;;;;;;;22.41;35.82;94637.69;4968868;28;20034;-73
2021/01/15 06:09:24;;;;;;;1.73;0.90;;;;;;;22.41;35.85;94629.50;4957261;28;20435;-76
2021/01/15 06:11:50;;;;;;;1.30;1.00;;;;;;;22.39;36.07;94632.03;4967050;28;20346;-74
2021/01/15 06:14:17;;;;;;;1.13;0.80;;;;;;;22.47;36.15;94633.63;4960805;28;20488;-75
2021/01/15 06:16:42;;;;;;;2.15;0.82;;;;;;;22.54;35.96;94648.63;4967477;28;20034;-76
2021/01/15 06:19:08;;;;;;;1.65;1.00;;;;;;;22.54;35.86;94637.75;4968399;28;20424;-73
2021/01/15 06:21:34;;;;;;;1.83;1.00;;;;;;;22.56;35.94;94646.16;4967543;28;20047;-73
2021/01/15 06:24:08;;;;;;;2.28;1.42;;;;;;;22.58;35.80;94644.38;4963624;28;20088;-75
2021/01/15 06:26:34;;;;;;;1.00;0.80;;;;;;;22.66;35.93;94655.44;4968886;28;20404;-82
2021/01/15 06:29:10;;;;;;;1.30;0.90;;;;;;;22.74;35.96;94650.91;4965521;28;20030;-75
2021/01/15 06:31:47;;;;;;;1.17;0.70;;;;;;;22.74;35.34;94642.72;4969453;28;20033;-78
2021/01/15 06:34:14;;;;;;;1.20;0.82;;;;;;;22.94;35.23;94668.25;4967674;28;20050;-75
2021/01/15 06:36:52;;;;;;;1.55;1.00;;;;;;;23.05;35.09;94662.63;4961118;28;20571;-73
2021/01/15 06:39:19;;;;;;;1.27;0.90;;;;;;;23.15;35.05;94669.19;4967118;28;20019;-72
2021/01/15 06:41:44;;;;;;;1.50;0.90;;;;;;;23.23;35.05;94686.41;4963367;28;20019;-71
2021/01/15 06:44:11;;;;;;;1.10;0.70;;;;;;;23.33;34.64;94686.78;4967312;28;20088;-73
2021/01/15 06:46:41;;;;;;;1.17;0.77;;;;;;;23.43;34.78;94688.59;4951574;28;20457;-73
2021/01/15 06:49:07;;;;;;;1.35;0.80;;;;;;;23.51;34.33;94689.47;4961959;28;20034;-76
2021/01/15 06:51:36;;;;;;;2.15;1.02;;;;;;;23.57;34.47;94698.31;4932731;29;20015;-75
2021/01/15 06:54:05;;;;;;;1.10;0.70;;;;;;;23.65;34.15;94694.50;4966130;28;20550;-74
2021/01/15 06:56:33;;;;;;;1.50;1.10;;;;;;;23.69;34.14;94705.09;4967024;28;20041;-77
2021/01/15 06:58:58;;;;;;;1.38;0.90;;;;;;;23.73;34.16;94702.81;4957288;28;20086;-74
2021/01/15 07:01:37;;;;;;;1.50;0.98;;;;;;;23.81;33.86;94711.88;4944399;28;20018;-75
2021/01/15 07:04:15;;;;;;;1.38;0.82;;;;;;;23.89;33.72;94719.66;4953815;28;20033;-76
2021/01/15 07:07:01;;;;;;;1.52;0.98;;;;;;;23.98;33.89;94716.53;4965519;28;20526;-76
2021/01/15 07:09:29;;;;;;;1.40;0.90;;;;;;;24.08;33.67;94719.59;4962986;28;20065;-73
2021/01/15 07:11:58;;;;;;;1.05;0.75;;;;;;;24.14;33.46;94718.28;4967041;28;20137;-74
2021/01/15 07:14:26;;;;;;;1.88;1.00;;;;;;;24.26;33.75;94719.56;4962114;28;20109;-73
2021/01/15 07:16:52;;;;;;;1.80;0.90;;;;;;;24.31;33.31;94732.38;4955622;28;21409;-73
2021/01/15 07:19:20;;;;;;;1.40;0.90;;;;;;;24.29;33.40;94732.16;4944205;29;20481;-73
2021/01/15 07:22:01;;;;;;;1.90;1.08;;;;;;;24.26;33.15;94727.75;4949884;28;20043;-73
2021/01/15 07:24:28;;;;;;;1.25;0.77;;;;;;;24.34;32.83;94742.28;4951074;28;20459;-73
2021/01/15 07:26:53;;;;;;;1.40;1.15;;;;;;;24.26;32.82;94741.41;4963831;28;20114;-71
2021/01/15 07:29:19;;;;;;;2.10;1.15;;;;;;;24.35;33.07;94743.75;4957312;28;20030;-73
2021/01/15 07:31:45;;;;;;;1.15;0.82;;;;;;;24.32;32.73;94739.31;4962338;28;20412;-73
2021/01/15 07:34:16;;;;;;;1.50;1.17;;;;;;;24.48;32.64;94754.69;4962199;28;20065;-73
2021/01/15 07:36:41;;;;;;;1.75;1.30;;;;;;;24.44;32.96;94757.00;4956794;28;20031;-73
2021/01/15 07:39:11;;;;;;;1.35;1.10;;;;;;;24.42;33.02;94759.50;4954996;28;20081;-73
2021/01/15 07:41:48;;;;;;;1.30;0.90;;;;;;;24.42;33.12;94757.53;4965021;28;20015;-72
2021/01/15 07:44:25;;;;;;;1.42;0.98;;;;;;;24.41;33.06;94758.03;4963859;28;20111;-75
2021/01/15 07:47:00;;;;;;;1.90;1.00;;;;;;;24.34;32.85;94764.09;4968279;28;20038;-70
2021/01/15 07:49:25;;;;;;;1.90;1.15;;;;;;;24.33;32.65;94762.63;4972831;28;20023;-70
2021/01/15 07:52:03;;;;;;;1.20;0.80;;;;;;;24.29;33.25;94767.63;4971825;28;20117;-70
2021/01/15 07:54:50;;;;;;;2.88;1.10;;;;;;;24.26;33.22;94767.94;4970270;28;20019;-71
2021/01/15 07:57:16;;;;;;;1.52;0.80;;;;;;;24.20;33.20;94770.00;4961143;28;20416;-72
2021/01/15 07:59:41;;;;;;;1.25;1.00;;;;;;;24.15;32.89;94768.84;4955583;28;20039;-70
2021/01/15 08:02:07;;;;;;;1.73;1.08;;;;;;;24.11;33.01;94762.97;4956951;28;20027;-71
2021/01/15 08:04:33;;;;;;;1.40;0.93;;;;;;;24.04;32.95;94773.75;4961092;28;20283;-71
2021/01/15 08:07:20;;;;;;;1.40;0.90;;;;;;;24.03;33.13;94777.72;4963557;28;20035;-71
2021/01/15 08:09:45;;;;;;;1.33;0.85;;;;;;;24.00;33.55;94776.75;4965722;28;20160;-71
2021/01/15 08:12:11;;;;;;;2.03;1.10;;;;;;;23.96;33.00;94773.63;4971741;28;20019;-71
2021/01/15 08:14:36;;;;;;;2.00;1.20;;;;;;;23.74;33.30;94750.66;4984354;28;20023;-71
2021/01/15 08:17:03;;;;;;;1.95;1.30;;;;;;;23.90;33.15;94781.13;4966434;28;20025;-71
2021/01/15 08:19:33;;;;;;;1.90;1.25;;;;;;;23.84;33.66;94781.72;4970508;28;20080;-69
2021/01/15 08:22:00;;;;;;;1.65;1.00;;;;;;;23.79;33.88;94790.72;4969649;28;20101;-71
2021/01/15 08:24:26;;;;;;;1.90;1.15;;;;;;;23.69;33.83;94782.19;4970988;28;20566;-72
2021/01/15 08:26:55;;;;;;;1.73;1.10;;;;;;;23.55;33.81;94768.97;4971572;28;20034;-72
2021/01/15 08:29:26;;;;;;;1.70;1.13;;;;;;;23.67;33.51;94789.41;4953508;28;20142;-72
2021/01/15 08:31:56;;;;;;;1.67;1.27;;;;;;;23.65;33.62;94791.91;4952559;29;20081;-72
2021/01/15 08:34:22;;;;;;;2.00;1.20;;;;;;;23.52;33.71;94783.63;4953911;28;20031;-71
2021/01/15 08:36:49;;;;;;;1.75;1.20;;;;;;;23.61;33.91;94791.44;4936818;29;20042;-70
2021/01/15 08:39:14;;;;;;;1.48;1.20;;;;;;;23.61;33.49;94796.91;4936401;29;20118;-72
2021/01/15 08:41:40;;;;;;;2.42;1.60;;;;;;;23.56;33.83;94795.00;4950394;28;20023;-72
2021/01/15 08:44:06;;;;;;;2.60;1.40;;;;;;;23.52;33.87;94800.72;4951186;29;20030;-72
2021/01/15 08:46:32;;;;;;;2.30;1.40;;;;;;;23.49;33.69;94795.56;4933833;29;20055;-71
2021/01/15 08:49:05;;;;;;;1.63;1.30;;;;;;;23.46;33.82;94791.13;4933050;29;20054;-72
2021/01/15 08:51:32;;;;;;;1.73;1.08;;;;;;;23.41;33.79;94794.69;4935168;29;20038;-71
2021/01/15 08:54:07;;;;;;;1.67;1.27;;;;;;;23.46;33.82;94796.59;4964478;28;20054;-71
2021/01/15 08:56:32;;;;;;;1.85;1.30;;;;;;;23.46;33.70;94791.13;4932956;29;20128;-71
2021/01/15 08:58:58;;;;;;;2.20;1.30;;;;;;;23.44;34.14;94799.09;4934399;29;20137;-69
2021/01/15 09:01:31;;;;;;;2.50;1.42;;;;;;;23.45;33.67;94795.09;4944433;29;20034;-70
2021/01/15 09:04:00;;;;;;;1.77;1.20;;;;;;;23.41;33.97;94784.50;4953223;28;20121;-72
2021/01/15 09:06:27;;;;;;;2.30;1.35;;;;;;;23.40;33.95;94782.28;4961742;28;20483;-72
2021/01/15 09:08:54;;;;;;;2.03;1.35;;;;;;;23.38;33.83;94774.63;4952200;29;20117;-71
2021/01/15 09:11:25;;;;;;;2.00;1.30;;;;;;;23.34;34.10;94773.44;4947984;29;20402;-71
2021/01/15 09:13:52;;;;;;;1.90;1.30;;;;;;;23.29;34.23;94777.00;4940511;29;20093;-71
2021/01/15 09:16:17;;;;;;;2.97;1.60;;;;;;;23.27;34.47;94776.75;4951362;29;20035;-72
2021/01/15 09:18:45;;;;;;;2.17;1.50;;;;;;;23.04;34.36;94750.31;4962261;28;20394;-72
2021/01/15 09:21:10;;;;;;;2.00;1.30;;;;;;;23.24;34.29;94775.06;4957652;28;20396;-71
2021/01/15 09:23:36;;;;;;;1.88;1.40;;;;;;;23.26;34.55;94778.03;4971854;28;20030;-70
2021/01/15 09:26:02;;;;;;;2.00;1.40;;;;;;;23.27;34.41;94768.56;4970451;28;20106;-70
2021/01/15 09:28:27;;;;;;;1.88;1.33;;;;;;;23.24;34.80;94775.06;4969560;28;20511;-72
2021/01/15 09:30:53;;;;;;;1.80;1.30;;;;;;;23.25;34.01;94762.91;4968707;28;20106;-70
2021/01/15 09:33:18;;;;;;;2.53;1.40;;;;;;;23.24;34.58;94753.25;4966522;28;20034;-70
2021/01/15 09:35:44;;;;;;;1.60;1.23;;;;;;;23.22;34.46;94763.94;4963792;28;20508;-72
2021/01/15 09:38:09;;;;;;;2.08;1.73;;;;;;;23.23;34.36;94759.97;4947691;29;20027;-72
2021/01/15 09:40:35;;;;;;;2.30;1.55;;;;;;;23.21;34.32;94765.19;4941655;28;20027;-72
2021/01/15 09:43:01;;;;;;;2.22;1.30;;;;;;;23.19;34.36;94758.78;4943390;29;20125;-70
2021/01/15 09:45:26;;;;;;;2.38;1.40;;;;;;;23.15;34.19;94750.91;4943146;28;20106;-70
2021/01/15 09:47:52;;;;;;;2.92;1.55;;;;;;;23.15;34.48;94761.81;4942530;28;20508;-71
2021/01/15 09:50:18;;;;;;;1.80;1.50;;;;;;;23.15;34.38;94759.09;4952662;28;20555;-71
2021/01/15 09:52:52;;;;;;;1.75;1.30;;;;;;;23.15;34.46;94761.06;4943308;29;20039;-72
2021/01/15 09:55:18;;;;;;;2.75;1.63;;;;;;;23.11;34.50;94761.34;4943041;29;20102;-72
2021/01/15 09:57:47;;;;;;;2.20;1.50;;;;;;;23.10;34.73;94759.16;4941321;29;20044;-72
2021/01/15 10:00:12;;;;;;;2.15;1.58;;;;;;;23.13;34.26;94753.41;4960008;28;20018;-74
2021/01/15 10:02:38;;;;;;;2.17;1.52;;;;;;;23.00;34.11;94739.72;4967608;28;20018;-71
2021/01/15 10:05:04;;;;;;;2.60;1.50;;;;;;;23.14;34.83;94754.88;4956234;28;20034;-71
2021/01/15 10:07:29;;;;;;;2.00;1.30;;;;;;;23.13;34.94;94747.94;4967165;28;20101;-71
2021/01/15 10:09:55;;;;;;;1.70;1.30;;;;;;;23.09;35.00;94742.06;4968695;28;20045;-70
2021/01/15 10:12:20;;;;;;;2.10;1.30;;;;;;;23.08;34.71;94739.88;4968639;28;20423;-76
2021/01/15 10:14:46;;;;;;;2.28;1.48;;;;;;;23.06;35.22;94743.09;4953263;28;20057;-76
2021/01/15 10:17:11;;;;;;;1.85;1.30;;;;;;;23.08;35.50;94734.41;4951230;28;20031;-74
2021/01/15 10:19:37;;;;;;;2.28;1.58;;;;;;;23.15;35.30;94734.56;4951331;28;20042;-75
2021/01/15 10:22:02;;;;;;;2.40;1.65;;;;;;;23.08;35.44;94707.91;4960550;28;20026;-75
2021/01/15 10:24:28;;;;;;;1.95;1.35;;;;;;;23.26;35.33;94712.63;4965664;28;20543;-74
2021/01/15 10:26:53;;;;;;;2.28;1.50;;;;;;;23.36;35.62;94726.63;4952667;28;20030;-74
2021/01/15 10:29:19;;;;;;;4.22;1.80;;;;;;;23.39;35.05;94721.63;4967065;28;20034;-74
2021/01/15 10:31:48;;;;;;;1.95;1.52;;;;;;;23.38;35.46;94700.34;4965490;28;20043;-79
2021/01/15 10:34:14;;;;;;;3.08;1.23;;;;;;;23.59;35.21;94712.19;4943254;29;20118;-74
2021/01/15 10:36:40;;;;;;;2.58;1.67;;;;;;;23.65;34.79;94707.41;4957752;28;20106;-77
2021/01/15 10:39:06;;;;;;;2.22;1.42;;;;;;;23.54;34.76;94683.00;4969251;28;20034;-83
2021/01/15 10:41:35;;;;;;;2.08;1.58;;;;;;;23.80;34.75;94721.31;4968454;28;20030;-81
2021/01/15 10:44:02;;;;;;;2.97;1.55;;;;;;;23.88;34.94;94720.94;4969292;28;20190;-77
2021/01/15 10:46:36;;;;;;;2.20;1.45;;;;;;;24.02;34.64;94716.97;4955415;28;20047;-78
2021/01/15 10:49:01;;;;;;;2.55;1.85;;;;;;;24.07;34.43;94705.22;4951092;28;20024;-78
2021/01/15 10:51:27;;;;;;;2.72;1.70;;;;;;;24.21;34.14;94712.19;4951102;28;20054;-77
2021/01/15 10:53:52;;;;;;;2.38;1.60;;;;;;;24.30;34.20;94709.06;4954625;28;20068;-78
2021/01/15 10:56:17;;;;;;;2.60;1.50;;;;;;;24.43;33.67;94711.84;4955298;28;20031;-82
2021/01/15 10:58:43;;;;;;;1.73;1.30;;;;;;;24.49;33.95;94698.84;4965131;28;20031;-78
2021/01/15 11:01:08;;;;;;;1.88;1.30;;;;;;;24.57;33.93;94694.22;4944436;28;20034;-80
2021/01/15 11:03:34;;;;;;;2.45;1.45;;;;;;;24.65;33.77;94689.59;4971755;28;20506;-79
2021/01/15 11:05:59;;;;;;;2.33;1.58;;;;;;;24.77;33.48;94691.59;4965469;28;20554;-80
2021/01/15 11:08:25;;;;;;;2.35;1.70;;;;;;;24.85;33.41;94684.94;4951700;28;20114;-78
2021/01/15 11:10:50;;;;;;;2.25;1.50;;;;;;;24.92;33.38;94681.59;4957501;28;20039;-77
2021/01/15 11:13:16;;;;;;;2.00;1.27;;;;;;;24.99;32.91;94675.53;4965958;28;20034;-81
2021/01/15 11:15:41;;;;;;;1.77;1.35;;;;;;;25.04;33.07;94680.13;4968232;28;20097;-79
2021/01/15 11:18:07;;;;;;;2.20;1.30;;;;;;;25.10;32.65;94680.03;4953348;28;20094;-85
2021/01/15 11:20:32;;;;;;;2.45;1.70;;;;;;;25.12;32.69;94664.56;4950600;28;20059;-80
2021/01/15 11:22:58;;;;;;;2.63;1.83;;;;;;;25.11;32.28;94654.16;4958234;28;20031;-82
2021/01/15 11:25:23;;;;;;;2.05;1.55;;;;;;;25.19;32.26;94677.59;4964543;28;20034;-75
2021/01/15 11:27:49;;;;;;;2.75;1.60;;;;;;;25.27;32.21;94672.94;4966760;28;20045;-71
2021/01/15 11:30:15;;;;;;;2.38;1.48;;;;;;;25.38;32.48;94661.75;4968789;28;20085;-70
2021/01/15 11:32:40;;;;;;;3.50;1.30;;;;;;;25.36;32.58;94664.28;4953590;28;20090;-70
2021/01/15 11:35:07;;;;;;;1.75;1.30;;;;;;;25.39;32.73;94663.22;4953792;28;20452;-78
2021/01/15 11:37:35;;;;;;;1.63;1.23;;;;;;;25.41;32.41;94660.69;4983202;28;20042;-79